sensor_id;sensor_type;location;lat;lon;timestamp;P1;durP1;ratioP1;P2;durP2;ratioP2
61685;SDS011;47592;45.904;8.978;2022-08-21T00:01:19;0.75;;;0.30;;
61685;SDS011;47592;45.904;8.978;2022-08-21T00:03:47;0.88;;;0.20;;
61685;SDS011;47592;45.904;8.978;2022-08-21T00:06:13;0.40;;;0.20;;
61685;SDS011;47592;45.904;8.978;2022-08-21T00:08:38;0.77;;;0.25;;
61685;SDS011;47592;45.904;8.978;2022-08-21T00:11:04;0.47;;;0.20;;
61685;SDS011;47592;45.904;8.978;2022-08-21T00:13:30;0.57;;;0.30;;
61685;SDS011;47592;45.904;8.978;2022-08-21T00:15:56;0.68;;;0.28;;
61685;SDS011;47592;45.904;8.978;2022-08-21T00:18:22;0.63;;;0.20;;
61685;SDS011;47592;45.904;8.978;2022-08-21T00:20:47;1.48;;;0.20;;
61685;SDS011;47592;45.904;8.978;2022-08-21T00:23:13;0.70;;;0.30;;
61685;SDS011;47592;45.904;8.978;2022-08-21T00:25:39;1.33;;;0.20;;
61685;SDS011;47592;45.904;8.978;2022-08-21T00:28:06;0.75;;;0.10;;
61685;SDS011;47592;45.904;8.978;2022-08-21T00:30:32;0.75;;;0.28;;
61685;SDS011;47592;45.904;8.978;2022-08-21T00:32:58;0.57;;;0.20;;
61685;SDS011;47592;45.904;8.978;2022-08-21T00:35:25;0.90;;;0.30;;
61685;SDS011;47592;45.904;8.978;2022-08-21T00:37:53;0.57;;;0.28;;
61685;SDS011;47592;45.904;8.978;2022-08-21T00:40:20;0.95;;;0.25;;
61685;SDS011;47592;45.904;8.978;2022-08-21T00:45:14;0.82;;;0.20;;
61685;SDS011;47592;45.904;8.978;2022-08-21T00:47:40;0.75;;;0.20;;
61685;SDS011;47592;45.904;8.978;2022-08-21T00:50:06;0.40;;;0.20;;
61685;SDS011;47592;45.904;8.978;2022-08-21T00:52:33;0.43;;;0.20;;
61685;SDS011;47592;45.904;8.978;2022-08-21T00:54:59;0.22;;;0.13;;
61685;SDS011;47592;45.904;8.978;2022-08-21T00:57:29;0.65;;;0.20;;
61685;SDS011;47592;45.904;8.978;2022-08-21T00:59:58;0.95;;;0.25;;
61685;SDS011;47592;45.904;8.978;2022-08-21T01:02:25;0.40;;;0.20;;
61685;SDS011;47592;45.904;8.978;2022-08-21T01:04:51;0.68;;;0.20;;
61685;SDS011;47592;45.904;8.978;2022-08-21T01:07:16;0.20;;;0.10;;
61685;SDS011;47592;45.904;8.978;2022-08-21T01:09:42;0.75;;;0.30;;
61685;SDS011;47592;45.904;8.978;2022-08-21T01:12:07;2.53;;;0.60;;
61685;SDS011;47592;45.904;8.978;2022-08-21T01:14:33;1.10;;;0.20;;
61685;SDS011;47592;45.904;8.978;2022-08-21T01:16:59;0.55;;;0.20;;
61685;SDS011;47592;45.904;8.978;2022-08-21T01:19:26;0.70;;;0.30;;
61685;SDS011;47592;45.904;8.978;2022-08-21T01:21:52;1.38;;;0.30;;
61685;SDS011;47592;45.904;8.978;2022-08-21T01:24:18;0.93;;;0.30;;
61685;SDS011;47592;45.904;8.978;2022-08-21T01:26:44;1.33;;;0.30;;
61685;SDS011;47592;45.904;8.978;2022-08-21T01:29:16;0.75;;;0.20;;
61685;SDS011;47592;45.904;8.978;2022-08-21T01:31:48;1.23;;;0.40;;
61685;SDS011;47592;45.904;8.978;2022-08-21T01:34:14;0.95;;;0.38;;
61685;SDS011;47592;45.904;8.978;2022-08-21T01:36:41;0.82;;;0.30;;
61685;SDS011;47592;45.904;8.978;2022-08-21T01:39:06;0.43;;;0.20;;
61685;SDS011;47592;45.904;8.978;2022-08-21T01:41:32;1.02;;;0.20;;
61685;SDS011;47592;45.904;8.978;2022-08-21T01:43:58;0.13;;;0.10;;
61685;SDS011;47592;45.904;8.978;2022-08-21T01:46:23;1.23;;;0.30;;
61685;SDS011;47592;45.904;8.978;2022-08-21T01:48:49;0.15;;;0.10;;
61685;SDS011;47592;45.904;8.978;2022-08-21T01:51:14;0.40;;;0.10;;
61685;SDS011;47592;45.904;8.978;2022-08-21T01:53:40;0.57;;;0.20;;
61685;SDS011;47592;45.904;8.978;2022-08-21T01:56:06;1.30;;;0.30;;
61685;SDS011;47592;45.904;8.978;2022-08-21T01:58:33;0.40;;;0.20;;
61685;SDS011;47592;45.904;8.978;2022-08-21T02:00:59;0.75;;;0.20;;
61685;SDS011;47592;45.904;8.978;2022-08-21T02:03:26;1.58;;;0.20;;
61685;SDS011;47592;45.904;8.978;2022-08-21T02:05:55;1.23;;;0.20;;
61685;SDS011;47592;45.904;8.978;2022-08-21T02:08:21;1.15;;;0.32;;
61685;SDS011;47592;45.904;8.978;2022-08-21T02:10:48;1.50;;;0.30;;
61685;SDS011;47592;45.904;8.978;2022-08-21T02:13:14;1.25;;;0.35;;
61685;SDS011;47592;45.904;8.978;2022-08-21T02:15:40;1.10;;;0.30;;
61685;SDS011;47592;45.904;8.978;2022-08-21T02:18:05;1.08;;;0.20;;
61685;SDS011;47592;45.904;8.978;2022-08-21T02:20:42;0.45;;;0.10;;
61685;SDS011;47592;45.904;8.978;2022-08-21T02:23:10;2.13;;;0.30;;
61685;SDS011;47592;45.904;8.978;2022-08-21T02:25:36;0.50;;;0.20;;
61685;SDS011;47592;45.904;8.978;2022-08-21T02:28:03;2.13;;;0.30;;
61685;SDS011;47592;45.904;8.978;2022-08-21T02:30:31;0.50;;;0.20;;
61685;SDS011;47592;45.904;8.978;2022-08-21T02:32:59;0.60;;;0.20;;
61685;SDS011;47592;45.904;8.978;2022-08-21T02:35:25;0.63;;;0.20;;
61685;SDS011;47592;45.904;8.978;2022-08-21T02:37:53;0.82;;;0.30;;
61685;SDS011;47592;45.904;8.978;2022-08-21T02:40:22;0.63;;;0.10;;
61685;SDS011;47592;45.904;8.978;2022-08-21T02:42:49;0.65;;;0.20;;
61685;SDS011;47592;45.904;8.978;2022-08-21T02:45:15;0.38;;;0.10;;
61685;SDS011;47592;45.904;8.978;2022-08-21T02:47:52;0.70;;;0.20;;
61685;SDS011;47592;45.904;8.978;2022-08-21T02:50:21;0.85;;;0.30;;
61685;SDS011;47592;45.904;8.978;2022-08-21T02:52:48;0.73;;;0.22;;
61685;SDS011;47592;45.904;8.978;2022-08-21T02:55:14;0.57;;;0.20;;
61685;SDS011;47592;45.904;8.978;2022-08-21T02:57:40;0.40;;;0.20;;
61685;SDS011;47592;45.904;8.978;2022-08-21T03:00:05;0.22;;;0.13;;
61685;SDS011;47592;45.904;8.978;2022-08-21T03:02:32;0.55;;;0.20;;
61685;SDS011;47592;45.904;8.978;2022-08-21T03:04:57;0.70;;;0.20;;
61685;SDS011;47592;45.904;8.978;2022-08-21T03:07:23;0.73;;;0.20;;
61685;SDS011;47592;45.904;8.978;2022-08-21T03:09:48;0.20;;;0.10;;
61685;SDS011;47592;45.904;8.978;2022-08-21T03:12:14;0.20;;;0.20;;
61685;SDS011;47592;45.904;8.978;2022-08-21T03:14:39;1.02;;;0.30;;
61685;SDS011;47592;45.904;8.978;2022-08-21T03:17:05;0.30;;;0.10;;
61685;SDS011;47592;45.904;8.978;2022-08-21T03:19:31;1.00;;;0.20;;
61685;SDS011;47592;45.904;8.978;2022-08-21T03:21:57;0.20;;;0.10;;
61685;SDS011;47592;45.904;8.978;2022-08-21T03:24:22;0.20;;;0.10;;
61685;SDS011;47592;45.904;8.978;2022-08-21T03:26:47;0.73;;;0.28;;
61685;SDS011;47592;45.904;8.978;2022-08-21T03:29:13;0.43;;;0.20;;
61685;SDS011;47592;45.904;8.978;2022-08-21T03:31:38;0.17;;;0.10;;
61685;SDS011;47592;45.904;8.978;2022-08-21T03:34:04;0.98;;;0.38;;
61685;SDS011;47592;45.904;8.978;2022-08-21T03:36:29;0.77;;;0.20;;
61685;SDS011;47592;45.904;8.978;2022-08-21T03:38:55;0.60;;;0.20;;
61685;SDS011;47592;45.904;8.978;2022-08-21T03:41:20;0.30;;;0.17;;
61685;SDS011;47592;45.904;8.978;2022-08-21T03:43:46;1.42;;;0.30;;
61685;SDS011;47592;45.904;8.978;2022-08-21T03:46:11;0.80;;;0.17;;
61685;SDS011;47592;45.904;8.978;2022-08-21T03:48:37;0.68;;;0.22;;
61685;SDS011;47592;45.904;8.978;2022-08-21T03:51:03;0.77;;;0.30;;
61685;SDS011;47592;45.904;8.978;2022-08-21T03:53:30;0.55;;;0.30;;
61685;SDS011;47592;45.904;8.978;2022-08-21T03:55:55;1.10;;;0.30;;
61685;SDS011;47592;45.904;8.978;2022-08-21T03:58:22;0.68;;;0.30;;
61685;SDS011;47592;45.904;8.978;2022-08-21T04:00:52;0.68;;;0.20;;
61685;SDS011;47592;45.904;8.978;2022-08-21T04:03:20;0.17;;;0.13;;
61685;SDS011;47592;45.904;8.978;2022-08-21T04:05:45;0.25;;;0.20;;
61685;SDS011;47592;45.904;8.978;2022-08-21T04:08:11;0.17;;;0.10;;
61685;SDS011;47592;45.904;8.978;2022-08-21T04:10:38;0.47;;;0.20;;
61685;SDS011;47592;45.904;8.978;2022-08-21T04:13:05;0.20;;;0.10;;
61685;SDS011;47592;45.904;8.978;2022-08-21T04:15:31;1.75;;;0.20;;
61685;SDS011;47592;45.904;8.978;2022-08-21T04:17:56;0.32;;;0.20;;
61685;SDS011;47592;45.904;8.978;2022-08-21T04:20:22;1.25;;;0.30;;
61685;SDS011;47592;45.904;8.978;2022-08-21T04:22:49;0.20;;;0.10;;
61685;SDS011;47592;45.904;8.978;2022-08-21T04:25:16;0.35;;;0.15;;
61685;SDS011;47592;45.904;8.978;2022-08-21T04:27:42;3.35;;;0.30;;
61685;SDS011;47592;45.904;8.978;2022-08-21T04:30:08;0.65;;;0.20;;
61685;SDS011;47592;45.904;8.978;2022-08-21T04:32:37;1.83;;;0.40;;
61685;SDS011;47592;45.904;8.978;2022-08-21T04:35:05;0.77;;;0.30;;
61685;SDS011;47592;45.904;8.978;2022-08-21T04:37:33;1.45;;;0.35;;
61685;SDS011;47592;45.904;8.978;2022-08-21T04:39:59;1.00;;;0.20;;
61685;SDS011;47592;45.904;8.978;2022-08-21T04:42:25;0.65;;;0.25;;
61685;SDS011;47592;45.904;8.978;2022-08-21T04:44:51;0.40;;;0.20;;
61685;SDS011;47592;45.904;8.978;2022-08-21T04:47:17;1.40;;;0.20;;
61685;SDS011;47592;45.904;8.978;2022-08-21T04:49:43;3.03;;;0.22;;
61685;SDS011;47592;45.904;8.978;2022-08-21T04:52:09;1.10;;;0.30;;
61685;SDS011;47592;45.904;8.978;2022-08-21T04:54:35;0.98;;;0.30;;
61685;SDS011;47592;45.904;8.978;2022-08-21T04:57:02;0.60;;;0.20;;
61685;SDS011;47592;45.904;8.978;2022-08-21T04:59:31;1.48;;;0.32;;
61685;SDS011;47592;45.904;8.978;2022-08-21T05:01:59;0.50;;;0.20;;
61685;SDS011;47592;45.904;8.978;2022-08-21T05:04:26;0.50;;;0.20;;
61685;SDS011;47592;45.904;8.978;2022-08-21T05:06:56;0.20;;;0.10;;
61685;SDS011;47592;45.904;8.978;2022-08-21T05:09:23;0.50;;;0.20;;
61685;SDS011;47592;45.904;8.978;2022-08-21T05:11:49;0.82;;;0.13;;
61685;SDS011;47592;45.904;8.978;2022-08-21T05:14:16;1.38;;;0.30;;
61685;SDS011;47592;45.904;8.978;2022-08-21T05:16:42;1.00;;;0.32;;
61685;SDS011;47592;45.904;8.978;2022-08-21T05:19:08;0.95;;;0.30;;
61685;SDS011;47592;45.904;8.978;2022-08-21T05:21:34;1.70;;;0.30;;
61685;SDS011;47592;45.904;8.978;2022-08-21T05:24:01;0.75;;;0.20;;
61685;SDS011;47592;45.904;8.978;2022-08-21T05:26:27;0.80;;;0.30;;
61685;SDS011;47592;45.904;8.978;2022-08-21T05:28:52;0.40;;;0.20;;
61685;SDS011;47592;45.904;8.978;2022-08-21T05:31:17;0.82;;;0.30;;
61685;SDS011;47592;45.904;8.978;2022-08-21T05:33:43;0.95;;;0.30;;
61685;SDS011;47592;45.904;8.978;2022-08-21T05:36:08;0.60;;;0.30;;
61685;SDS011;47592;45.904;8.978;2022-08-21T05:38:34;0.70;;;0.30;;
61685;SDS011;47592;45.904;8.978;2022-08-21T05:40:59;0.75;;;0.20;;
61685;SDS011;47592;45.904;8.978;2022-08-21T05:43:24;1.05;;;0.30;;
61685;SDS011;47592;45.904;8.978;2022-08-21T05:45:50;0.20;;;0.10;;
61685;SDS011;47592;45.904;8.978;2022-08-21T05:48:17;1.02;;;0.30;;
61685;SDS011;47592;45.904;8.978;2022-08-21T05:50:44;0.52;;;0.20;;
61685;SDS011;47592;45.904;8.978;2022-08-21T05:53:11;0.22;;;0.13;;
61685;SDS011;47592;45.904;8.978;2022-08-21T05:55:38;2.20;;;0.20;;
61685;SDS011;47592;45.904;8.978;2022-08-21T05:58:06;0.88;;;0.22;;
61685;SDS011;47592;45.904;8.978;2022-08-21T06:00:32;0.60;;;0.20;;
61685;SDS011;47592;45.904;8.978;2022-08-21T06:02:58;3.85;;;0.30;;
61685;SDS011;47592;45.904;8.978;2022-08-21T06:05:24;0.82;;;0.30;;
61685;SDS011;47592;45.904;8.978;2022-08-21T06:07:50;0.80;;;0.30;;
61685;SDS011;47592;45.904;8.978;2022-08-21T06:10:16;1.50;;;0.20;;
61685;SDS011;47592;45.904;8.978;2022-08-21T06:12:42;1.00;;;0.20;;
61685;SDS011;47592;45.904;8.978;2022-08-21T06:15:07;1.20;;;0.30;;
61685;SDS011;47592;45.904;8.978;2022-08-21T06:17:33;0.40;;;0.20;;
61685;SDS011;47592;45.904;8.978;2022-08-21T06:19:58;0.68;;;0.30;;
61685;SDS011;47592;45.904;8.978;2022-08-21T06:22:24;0.45;;;0.17;;
61685;SDS011;47592;45.904;8.978;2022-08-21T06:24:49;2.28;;;0.30;;
61685;SDS011;47592;45.904;8.978;2022-08-21T06:27:15;0.60;;;0.20;;
61685;SDS011;47592;45.904;8.978;2022-08-21T06:29:40;1.05;;;0.20;;
61685;SDS011;47592;45.904;8.978;2022-08-21T06:32:05;0.82;;;0.25;;
61685;SDS011;47592;45.904;8.978;2022-08-21T06:34:37;1.38;;;0.20;;
61685;SDS011;47592;45.904;8.978;2022-08-21T06:37:06;1.67;;;0.30;;
61685;SDS011;47592;45.904;8.978;2022-08-21T06:39:32;0.57;;;0.20;;
61685;SDS011;47592;45.904;8.978;2022-08-21T06:41:57;2.10;;;0.25;;
61685;SDS011;47592;45.904;8.978;2022-08-21T06:44:23;0.45;;;0.20;;
61685;SDS011;47592;45.904;8.978;2022-08-21T06:46:48;0.75;;;0.30;;
61685;SDS011;47592;45.904;8.978;2022-08-21T06:49:14;0.90;;;0.20;;
61685;SDS011;47592;45.904;8.978;2022-08-21T06:51:39;0.68;;;0.22;;
61685;SDS011;47592;45.904;8.978;2022-08-21T06:54:05;1.35;;;0.32;;
61685;SDS011;47592;45.904;8.978;2022-08-21T06:56:30;0.68;;;0.20;;
61685;SDS011;47592;45.904;8.978;2022-08-21T06:58:58;1.50;;;0.40;;
61685;SDS011;47592;45.904;8.978;2022-08-21T07:01:24;0.85;;;0.30;;
61685;SDS011;47592;45.904;8.978;2022-08-21T07:03:50;1.25;;;0.25;;
61685;SDS011;47592;45.904;8.978;2022-08-21T07:06:16;1.63;;;0.28;;
61685;SDS011;47592;45.904;8.978;2022-08-21T07:08:42;0.13;;;0.10;;
61685;SDS011;47592;45.904;8.978;2022-08-21T07:11:12;0.57;;;0.17;;
61685;SDS011;47592;45.904;8.978;2022-08-21T07:13:48;2.58;;;0.38;;
61685;SDS011;47592;45.904;8.978;2022-08-21T07:16:15;1.27;;;0.40;;
61685;SDS011;47592;45.904;8.978;2022-08-21T07:18:41;2.28;;;0.20;;
61685;SDS011;47592;45.904;8.978;2022-08-21T07:21:07;0.57;;;0.20;;
61685;SDS011;47592;45.904;8.978;2022-08-21T07:23:51;0.80;;;0.30;;
61685;SDS011;47592;45.904;8.978;2022-08-21T07:26:19;1.75;;;0.55;;
61685;SDS011;47592;45.904;8.978;2022-08-21T07:28:49;2.40;;;0.77;;
61685;SDS011;47592;45.904;8.978;2022-08-21T07:31:17;4.30;;;1.50;;
61685;SDS011;47592;45.904;8.978;2022-08-21T07:33:43;3.50;;;1.42;;
61685;SDS011;47592;45.904;8.978;2022-08-21T07:36:09;2.90;;;1.00;;
61685;SDS011;47592;45.904;8.978;2022-08-21T07:38:35;2.05;;;0.60;;
61685;SDS011;47592;45.904;8.978;2022-08-21T07:41:01;6.18;;;1.92;;
61685;SDS011;47592;45.904;8.978;2022-08-21T07:43:27;4.93;;;1.45;;
61685;SDS011;47592;45.904;8.978;2022-08-21T07:45:53;5.32;;;0.90;;
61685;SDS011;47592;45.904;8.978;2022-08-21T07:48:20;3.60;;;1.27;;
61685;SDS011;47592;45.904;8.978;2022-08-21T07:50:46;4.30;;;1.42;;
61685;SDS011;47592;45.904;8.978;2022-08-21T07:53:11;4.18;;;1.25;;
61685;SDS011;47592;45.904;8.978;2022-08-21T07:55:37;3.75;;;1.10;;
61685;SDS011;47592;45.904;8.978;2022-08-21T07:58:02;4.78;;;1.75;;
61685;SDS011;47592;45.904;8.978;2022-08-21T08:00:28;2.10;;;0.73;;
61685;SDS011;47592;45.904;8.978;2022-08-21T08:02:55;3.38;;;0.98;;
61685;SDS011;47592;45.904;8.978;2022-08-21T08:05:22;3.50;;;0.88;;
61685;SDS011;47592;45.904;8.978;2022-08-21T08:07:49;2.05;;;0.63;;
61685;SDS011;47592;45.904;8.978;2022-08-21T08:10:15;1.85;;;0.40;;
61685;SDS011;47592;45.904;8.978;2022-08-21T08:12:41;2.10;;;0.60;;
61685;SDS011;47592;45.904;8.978;2022-08-21T08:15:09;3.30;;;0.60;;
61685;SDS011;47592;45.904;8.978;2022-08-21T08:17:36;3.30;;;0.87;;
61685;SDS011;47592;45.904;8.978;2022-08-21T08:20:04;2.63;;;0.80;;
61685;SDS011;47592;45.904;8.978;2022-08-21T08:27:29;3.63;;;1.35;;
61685;SDS011;47592;45.904;8.978;2022-08-21T08:29:55;1.92;;;0.50;;
61685;SDS011;47592;45.904;8.978;2022-08-21T08:32:20;1.15;;;0.40;;
61685;SDS011;47592;45.904;8.978;2022-08-21T08:34:47;0.80;;;0.30;;
61685;SDS011;47592;45.904;8.978;2022-08-21T08:37:13;0.88;;;0.28;;
61685;SDS011;47592;45.904;8.978;2022-08-21T08:39:40;2.20;;;0.68;;
61685;SDS011;47592;45.904;8.978;2022-08-21T08:42:12;1.27;;;0.40;;
61685;SDS011;47592;45.904;8.978;2022-08-21T08:44:43;1.90;;;0.55;;
61685;SDS011;47592;45.904;8.978;2022-08-21T08:47:10;0.95;;;0.35;;
61685;SDS011;47592;45.904;8.978;2022-08-21T08:52:30;3.30;;;0.80;;
61685;SDS011;47592;45.904;8.978;2022-08-21T08:55:13;1.63;;;0.50;;
61685;SDS011;47592;45.904;8.978;2022-08-21T08:57:46;0.77;;;0.30;;
61685;SDS011;47592;45.904;8.978;2022-08-21T09:00:14;0.68;;;0.25;;
61685;SDS011;47592;45.904;8.978;2022-08-21T09:02:43;1.60;;;0.38;;
61685;SDS011;47592;45.904;8.978;2022-08-21T09:05:22;1.38;;;0.47;;
61685;SDS011;47592;45.904;8.978;2022-08-21T09:13:48;1.67;;;0.30;;
61685;SDS011;47592;45.904;8.978;2022-08-21T09:25:20;1.00;;;0.30;;
61685;SDS011;47592;45.904;8.978;2022-08-21T09:27:36;0.52;;;0.20;;
61685;SDS011;47592;45.904;8.978;2022-08-21T09:30:02;0.60;;;0.20;;
61685;SDS011;47592;45.904;8.978;2022-08-21T09:32:30;2.85;;;0.30;;
61685;SDS011;47592;45.904;8.978;2022-08-21T09:35:03;1.00;;;0.30;;
61685;SDS011;47592;45.904;8.978;2022-08-21T09:40:25;0.30;;;0.17;;
61685;SDS011;47592;45.904;8.978;2022-08-21T09:42:59;0.75;;;0.22;;
61685;SDS011;47592;45.904;8.978;2022-08-21T09:45:26;0.68;;;0.22;;
61685;SDS011;47592;45.904;8.978;2022-08-21T09:47:52;1.05;;;0.30;;
61685;SDS011;47592;45.904;8.978;2022-08-21T09:50:20;0.57;;;0.17;;
61685;SDS011;47592;45.904;8.978;2022-08-21T09:52:54;2.05;;;0.30;;
61685;SDS011;47592;45.904;8.978;2022-08-21T09:55:23;1.60;;;0.30;;
61685;SDS011;47592;45.904;8.978;2022-08-21T09:58:30;0.55;;;0.20;;
61685;SDS011;47592;45.904;8.978;2022-08-21T10:00:58;0.90;;;0.30;;
61685;SDS011;47592;45.904;8.978;2022-08-21T10:03:25;0.75;;;0.30;;
61685;SDS011;47592;45.904;8.978;2022-08-21T10:05:58;1.50;;;0.45;;
61685;SDS011;47592;45.904;8.978;2022-08-21T10:08:28;1.23;;;0.30;;
61685;SDS011;47592;45.904;8.978;2022-08-21T10:10:55;0.90;;;0.30;;
61685;SDS011;47592;45.904;8.978;2022-08-21T10:13:31;2.15;;;0.20;;
61685;SDS011;47592;45.904;8.978;2022-08-21T10:18:49;0.38;;;0.20;;
61685;SDS011;47592;45.904;8.978;2022-08-21T10:21:27;0.77;;;0.30;;
61685;SDS011;47592;45.904;8.978;2022-08-21T10:26:53;1.10;;;0.30;;
61685;SDS011;47592;45.904;8.978;2022-08-21T10:32:43;0.80;;;0.30;;
61685;SDS011;47592;45.904;8.978;2022-08-21T10:35:36;0.73;;;0.20;;
61685;SDS011;47592;45.904;8.978;2022-08-21T10:49:14;0.40;;;0.20;;
61685;SDS011;47592;45.904;8.978;2022-08-21T10:56:54;0.30;;;0.20;;
61685;SDS011;47592;45.904;8.978;2022-08-21T11:02:19;0.73;;;0.20;;
61685;SDS011;47592;45.904;8.978;2022-08-21T11:07:31;1.35;;;0.30;;
61685;SDS011;47592;45.904;8.978;2022-08-21T11:10:00;1.40;;;0.30;;
61685;SDS011;47592;45.904;8.978;2022-08-21T11:12:40;0.75;;;0.20;;
61685;SDS011;47592;45.904;8.978;2022-08-21T11:15:41;0.47;;;0.20;;
61685;SDS011;47592;45.904;8.978;2022-08-21T11:21:20;1.17;;;0.27;;
61685;SDS011;47592;45.904;8.978;2022-08-21T11:24:03;0.85;;;0.20;;
61685;SDS011;47592;45.904;8.978;2022-08-21T11:26:52;0.82;;;0.30;;
61685;SDS011;47592;45.904;8.978;2022-08-21T11:29:21;0.40;;;0.20;;
61685;SDS011;47592;45.904;8.978;2022-08-21T11:37:35;1.25;;;0.38;;
61685;SDS011;47592;45.904;8.978;2022-08-21T11:45:44;0.55;;;0.20;;
61685;SDS011;47592;45.904;8.978;2022-08-21T11:48:34;0.77;;;0.30;;
61685;SDS011;47592;45.904;8.978;2022-08-21T11:51:07;0.45;;;0.15;;
61685;SDS011;47592;45.904;8.978;2022-08-21T11:53:39;1.17;;;0.30;;
61685;SDS011;47592;45.904;8.978;2022-08-21T11:56:19;0.38;;;0.20;;
61685;SDS011;47592;45.904;8.978;2022-08-21T11:58:49;0.80;;;0.20;;
61685;SDS011;47592;45.904;8.978;2022-08-21T12:03:53;0.55;;;0.28;;
61685;SDS011;47592;45.904;8.978;2022-08-21T12:06:32;0.95;;;0.50;;
61685;SDS011;47592;45.904;8.978;2022-08-21T12:09:04;0.90;;;0.20;;
61685;SDS011;47592;45.904;8.978;2022-08-21T12:11:46;0.50;;;0.20;;
61685;SDS011;47592;45.904;8.978;2022-08-21T12:14:15;0.80;;;0.30;;
61685;SDS011;47592;45.904;8.978;2022-08-21T12:19:28;0.38;;;0.20;;
61685;SDS011;47592;45.904;8.978;2022-08-21T12:26:52;7.30;;;0.82;;
61685;SDS011;47592;45.904;8.978;2022-08-21T12:29:24;1.77;;;0.40;;
61685;SDS011;47592;45.904;8.978;2022-08-21T12:31:53;2.42;;;0.60;;
61685;SDS011;47592;45.904;8.978;2022-08-21T12:34:19;0.30;;;0.20;;
61685;SDS011;47592;45.904;8.978;2022-08-21T12:36:53;1.53;;;0.60;;
61685;SDS011;47592;45.904;8.978;2022-08-21T12:39:24;0.45;;;0.20;;
61685;SDS011;47592;45.904;8.978;2022-08-21T12:44:56;0.68;;;0.30;;
61685;SDS011;47592;45.904;8.978;2022-08-21T12:48:29;0.50;;;0.20;;
61685;SDS011;47592;45.904;8.978;2022-08-21T12:50:35;0.93;;;0.40;;
61685;SDS011;47592;45.904;8.978;2022-08-21T12:53:09;1.75;;;0.30;;
61685;SDS011;47592;45.904;8.978;2022-08-21T12:55:42;0.93;;;0.30;;
61685;SDS011;47592;45.904;8.978;2022-08-21T12:58:18;1.20;;;0.38;;
61685;SDS011;47592;45.904;8.978;2022-08-21T13:00:49;0.95;;;0.30;;
61685;SDS011;47592;45.904;8.978;2022-08-21T13:03:16;1.50;;;0.30;;
61685;SDS011;47592;45.904;8.978;2022-08-21T13:05:41;1.05;;;0.30;;
61685;SDS011;47592;45.904;8.978;2022-08-21T13:08:08;1.05;;;0.30;;
61685;SDS011;47592;45.904;8.978;2022-08-21T13:10:36;0.93;;;0.35;;
61685;SDS011;47592;45.904;8.978;2022-08-21T13:13:24;0.95;;;0.30;;
61685;SDS011;47592;45.904;8.978;2022-08-21T13:15:55;0.85;;;0.20;;
61685;SDS011;47592;45.904;8.978;2022-08-21T13:18:28;0.80;;;0.25;;
61685;SDS011;47592;45.904;8.978;2022-08-21T13:23:31;0.98;;;0.30;;
61685;SDS011;47592;45.904;8.978;2022-08-21T13:25:57;0.90;;;0.20;;
61685;SDS011;47592;45.904;8.978;2022-08-21T13:28:23;0.45;;;0.20;;
61685;SDS011;47592;45.904;8.978;2022-08-21T13:30:50;1.05;;;0.30;;
61685;SDS011;47592;45.904;8.978;2022-08-21T13:33:18;0.85;;;0.30;;
61685;SDS011;47592;45.904;8.978;2022-08-21T13:38:10;0.57;;;0.30;;
61685;SDS011;47592;45.904;8.978;2022-08-21T13:40:45;0.75;;;0.25;;
61685;SDS011;47592;45.904;8.978;2022-08-21T13:43:14;0.80;;;0.22;;
61685;SDS011;47592;45.904;8.978;2022-08-21T13:45:43;1.02;;;0.32;;
61685;SDS011;47592;45.904;8.978;2022-08-21T13:48:12;0.57;;;0.20;;
61685;SDS011;47592;45.904;8.978;2022-08-21T13:50:37;1.08;;;0.30;;
61685;SDS011;47592;45.904;8.978;2022-08-21T13:53:04;1.17;;;0.40;;
61685;SDS011;47592;45.904;8.978;2022-08-21T13:55:36;0.57;;;0.30;;
61685;SDS011;47592;45.904;8.978;2022-08-21T13:58:06;0.82;;;0.30;;
61685;SDS011;47592;45.904;8.978;2022-08-21T14:00:34;0.85;;;0.30;;
61685;SDS011;47592;45.904;8.978;2022-08-21T14:03:10;0.77;;;0.30;;
61685;SDS011;47592;45.904;8.978;2022-08-21T14:05:38;1.17;;;0.30;;
61685;SDS011;47592;45.904;8.978;2022-08-21T14:08:10;1.40;;;0.40;;
61685;SDS011;47592;45.904;8.978;2022-08-21T14:10:42;2.33;;;0.50;;
61685;SDS011;47592;45.904;8.978;2022-08-21T14:13:26;0.63;;;0.30;;
61685;SDS011;47592;45.904;8.978;2022-08-21T14:16:03;1.10;;;0.40;;
61685;SDS011;47592;45.904;8.978;2022-08-21T14:18:43;0.75;;;0.30;;
61685;SDS011;47592;45.904;8.978;2022-08-21T14:21:10;1.73;;;0.30;;
61685;SDS011;47592;45.904;8.978;2022-08-21T14:23:36;1.17;;;0.30;;
61685;SDS011;47592;45.904;8.978;2022-08-21T14:26:04;1.50;;;0.40;;
61685;SDS011;47592;45.904;8.978;2022-08-21T14:28:34;0.75;;;0.20;;
61685;SDS011;47592;45.904;8.978;2022-08-21T14:31:16;0.88;;;0.30;;
61685;SDS011;47592;45.904;8.978;2022-08-21T14:33:44;1.52;;;0.40;;
61685;SDS011;47592;45.904;8.978;2022-08-21T14:36:09;3.03;;;0.35;;
61685;SDS011;47592;45.904;8.978;2022-08-21T14:38:36;1.13;;;0.40;;
61685;SDS011;47592;45.904;8.978;2022-08-21T14:41:04;1.05;;;0.32;;
61685;SDS011;47592;45.904;8.978;2022-08-21T14:43:36;1.20;;;0.30;;
61685;SDS011;47592;45.904;8.978;2022-08-21T14:46:01;0.70;;;0.30;;
61685;SDS011;47592;45.904;8.978;2022-08-21T14:48:27;1.25;;;0.30;;
61685;SDS011;47592;45.904;8.978;2022-08-21T14:50:52;1.73;;;0.40;;
61685;SDS011;47592;45.904;8.978;2022-08-21T14:53:18;0.93;;;0.40;;
61685;SDS011;47592;45.904;8.978;2022-08-21T14:55:43;0.90;;;0.30;;
61685;SDS011;47592;45.904;8.978;2022-08-21T14:58:27;1.52;;;0.30;;
61685;SDS011;47592;45.904;8.978;2022-08-21T15:00:53;2.08;;;0.40;;
61685;SDS011;47592;45.904;8.978;2022-08-21T15:03:20;0.90;;;0.22;;
61685;SDS011;47592;45.904;8.978;2022-08-21T15:05:47;1.25;;;0.40;;
61685;SDS011;47592;45.904;8.978;2022-08-21T15:08:13;0.63;;;0.30;;
61685;SDS011;47592;45.904;8.978;2022-08-21T15:10:38;1.45;;;0.40;;
61685;SDS011;47592;45.904;8.978;2022-08-21T15:13:05;1.15;;;0.40;;
61685;SDS011;47592;45.904;8.978;2022-08-21T15:15:32;1.38;;;0.40;;
61685;SDS011;47592;45.904;8.978;2022-08-21T15:18:00;2.42;;;0.30;;
61685;SDS011;47592;45.904;8.978;2022-08-21T15:20:26;0.82;;;0.28;;
61685;SDS011;47592;45.904;8.978;2022-08-21T15:22:52;1.85;;;0.95;;
61685;SDS011;47592;45.904;8.978;2022-08-21T15:25:17;1.23;;;0.30;;
61685;SDS011;47592;45.904;8.978;2022-08-21T15:27:43;1.15;;;0.47;;
61685;SDS011;47592;45.904;8.978;2022-08-21T15:30:08;1.30;;;0.32;;
61685;SDS011;47592;45.904;8.978;2022-08-21T15:32:34;0.70;;;0.30;;
61685;SDS011;47592;45.904;8.978;2022-08-21T15:35:00;1.30;;;0.40;;
61685;SDS011;47592;45.904;8.978;2022-08-21T15:37:26;0.70;;;0.30;;
61685;SDS011;47592;45.904;8.978;2022-08-21T15:39:52;1.35;;;0.40;;
61685;SDS011;47592;45.904;8.978;2022-08-21T15:42:17;2.75;;;0.40;;
61685;SDS011;47592;45.904;8.978;2022-08-21T15:44:43;1.45;;;0.50;;
61685;SDS011;47592;45.904;8.978;2022-08-21T15:47:11;0.95;;;0.35;;
61685;SDS011;47592;45.904;8.978;2022-08-21T15:49:38;2.63;;;0.50;;
61685;SDS011;47592;45.904;8.978;2022-08-21T15:52:04;1.88;;;0.50;;
61685;SDS011;47592;45.904;8.978;2022-08-21T15:54:29;1.75;;;0.57;;
61685;SDS011;47592;45.904;8.978;2022-08-21T15:56:55;2.33;;;0.57;;
61685;SDS011;47592;45.904;8.978;2022-08-21T15:59:21;1.55;;;0.50;;
61685;SDS011;47592;45.904;8.978;2022-08-21T16:01:50;0.93;;;0.32;;
61685;SDS011;47592;45.904;8.978;2022-08-21T16:04:24;3.33;;;0.80;;
61685;SDS011;47592;45.904;8.978;2022-08-21T16:06:53;2.58;;;0.80;;
61685;SDS011;47592;45.904;8.978;2022-08-21T16:09:18;1.67;;;0.55;;
61685;SDS011;47592;45.904;8.978;2022-08-21T16:11:44;1.83;;;0.40;;
61685;SDS011;47592;45.904;8.978;2022-08-21T16:14:10;1.38;;;0.43;;
61685;SDS011;47592;45.904;8.978;2022-08-21T16:16:37;1.15;;;0.40;;
61685;SDS011;47592;45.904;8.978;2022-08-21T16:19:02;3.28;;;0.55;;
61685;SDS011;47592;45.904;8.978;2022-08-21T16:21:30;2.55;;;0.40;;
61685;SDS011;47592;45.904;8.978;2022-08-21T16:23:56;2.15;;;0.60;;
61685;SDS011;47592;45.904;8.978;2022-08-21T16:26:22;1.30;;;0.50;;